createdAt,value
2023-05-16T00:01:30.619Z,0.70
2023-05-16T00:03:58.439Z,0.80
2023-05-16T00:06:25.966Z,0.70
2023-05-16T00:08:53.365Z,0.70
2023-05-16T00:11:21.902Z,0.90
2023-05-16T00:13:49.293Z,1.10
2023-05-16T00:16:16.799Z,0.83
2023-05-16T00:18:45.762Z,0.73
2023-05-16T00:21:13.816Z,0.80
2023-05-16T00:23:41.345Z,0.87
2023-05-16T00:26:08.783Z,0.60
2023-05-16T00:28:36.207Z,0.70
2023-05-16T00:31:03.745Z,0.80
2023-05-16T00:33:31.291Z,1.90
2023-05-16T00:35:58.807Z,0.60
2023-05-16T00:38:26.613Z,1.03
2023-05-16T00:40:54.207Z,0.90
2023-05-16T00:43:22.687Z,1.00
2023-05-16T00:45:50.106Z,0.70
2023-05-16T00:48:17.627Z,1.10
2023-05-16T00:50:45.091Z,1.00
2023-05-16T00:53:12.757Z,1.00
2023-05-16T00:55:40.197Z,0.87
2023-05-16T00:58:11.888Z,0.90
2023-05-16T01:00:39.351Z,0.77
2023-05-16T01:03:07.200Z,0.83
2023-05-16T01:05:35.025Z,0.60
2023-05-16T01:08:02.435Z,1.00
2023-05-16T01:10:36.968Z,1.00
2023-05-16T01:13:13.680Z,0.97
2023-05-16T01:15:47.365Z,0.60
2023-05-16T01:18:40.436Z,0.80
2023-05-16T01:21:14.043Z,0.73
2023-05-16T01:23:48.528Z,0.70
2023-05-16T01:26:28.964Z,0.80
2023-05-16T01:28:56.763Z,0.70
2023-05-16T01:31:24.592Z,0.73
2023-05-16T01:33:52.197Z,1.00
2023-05-16T01:36:25.791Z,0.70
2023-05-16T01:38:59.423Z,0.83
2023-05-16T01:41:32.399Z,0.90
2023-05-16T01:44:01.642Z,0.87
2023-05-16T01:46:30.672Z,1.10
2023-05-16T01:49:17.454Z,0.60
2023-05-16T01:51:51.447Z,0.87
2023-05-16T01:54:19.606Z,0.97
2023-05-16T01:56:52.809Z,1.00
2023-05-16T01:59:22.372Z,0.80
2023-05-16T02:01:50.120Z,1.10
2023-05-16T02:04:17.597Z,1.20
2023-05-16T02:06:45.877Z,0.90
2023-05-16T02:09:13.238Z,0.87
2023-05-16T02:11:40.923Z,0.70
2023-05-16T02:14:10.479Z,0.93
2023-05-16T02:16:38.453Z,0.63
2023-05-16T02:19:06.319Z,1.17
2023-05-16T02:21:33.932Z,0.63
2023-05-16T02:24:01.702Z,0.77
2023-05-16T02:26:29.162Z,0.83
2023-05-16T02:28:56.560Z,0.90
2023-05-16T02:31:28.084Z,0.90
2023-05-16T02:33:55.879Z,0.70
2023-05-16T02:36:23.403Z,0.90
2023-05-16T02:38:50.765Z,0.70
2023-05-16T02:41:18.050Z,0.90
2023-05-16T02:43:47.017Z,0.83
2023-05-16T02:46:21.803Z,1.07
2023-05-16T02:48:49.610Z,1.10
2023-05-16T02:51:16.964Z,0.90
2023-05-16T02:53:44.402Z,0.90
2023-05-16T02:56:11.888Z,0.77
2023-05-16T02:58:39.280Z,0.77
2023-05-16T03:01:06.755Z,0.90
2023-05-16T03:03:36.411Z,1.07
2023-05-16T03:06:04.175Z,1.00
2023-05-16T03:08:31.670Z,1.00
2023-05-16T03:10:58.961Z,1.07
2023-05-16T03:13:28.499Z,1.10
2023-05-16T03:15:55.932Z,1.10
2023-05-16T03:18:23.415Z,1.00
2023-05-16T03:20:53.172Z,1.00
2023-05-16T03:23:21.105Z,0.83
2023-05-16T03:25:48.769Z,0.90
2023-05-16T03:28:18.208Z,1.00
2023-05-16T03:30:45.915Z,1.20
2023-05-16T03:33:13.571Z,1.10
2023-05-16T03:35:41.445Z,0.83
2023-05-16T03:38:12.086Z,0.70
2023-05-16T03:40:40.648Z,0.77
2023-05-16T03:43:08.140Z,1.03
2023-05-16T03:45:35.743Z,1.10
2023-05-16T03:48:03.330Z,0.90
2023-05-16T03:50:31.006Z,0.90
2023-05-16T03:52:58.445Z,0.87
2023-05-16T03:55:26.208Z,1.07
2023-05-16T03:57:53.972Z,1.13
2023-05-16T04:00:21.622Z,1.03
2023-05-16T04:02:49.185Z,0.93
2023-05-16T04:05:16.657Z,0.90
2023-05-16T04:07:44.132Z,0.87
2023-05-16T04:10:14.943Z,0.80
2023-05-16T04:12:45.721Z,0.70
2023-05-16T04:15:13.142Z,0.80
2023-05-16T04:17:40.672Z,0.90
2023-05-16T04:20:08.690Z,1.20
2023-05-16T04:22:36.078Z,1.17
2023-05-16T04:25:03.651Z,1.17
2023-05-16T04:27:31.803Z,0.90
2023-05-16T04:30:00.065Z,1.13
2023-05-16T04:32:29.162Z,0.80
2023-05-16T04:34:56.752Z,1.33
2023-05-16T04:37:24.102Z,1.20
2023-05-16T04:39:51.676Z,1.07
2023-05-16T04:42:19.138Z,1.00
2023-05-16T04:44:48.046Z,1.30
2023-05-16T04:47:15.564Z,1.30
2023-05-16T04:49:43.178Z,1.23
2023-05-16T04:52:10.786Z,1.30
2023-05-16T04:54:41.089Z,0.80
2023-05-16T04:57:08.491Z,1.10
2023-05-16T04:59:35.986Z,0.80
2023-05-16T05:02:04.454Z,1.20
2023-05-16T05:04:32.140Z,1.03
2023-05-16T05:07:00.127Z,0.97
2023-05-16T05:09:27.449Z,0.90
2023-05-16T05:11:54.924Z,1.07
2023-05-16T05:14:22.287Z,1.43
2023-05-16T05:16:49.773Z,1.23
2023-05-16T05:19:18.022Z,1.30
2023-05-16T05:21:45.604Z,1.50
2023-05-16T05:24:13.145Z,1.50
2023-05-16T05:26:41.207Z,2.00
2023-05-16T05:29:08.883Z,1.93
2023-05-16T05:31:36.283Z,1.40
2023-05-16T05:34:04.231Z,1.23
2023-05-16T05:36:31.801Z,3.70
2023-05-16T05:38:59.163Z,1.90
2023-05-16T05:41:27.367Z,1.20
2023-05-16T05:43:54.801Z,1.20
2023-05-16T05:46:22.315Z,1.10
2023-05-16T05:48:50.404Z,0.80
2023-05-16T05:51:18.325Z,1.00
2023-05-16T05:53:45.740Z,1.10
2023-05-16T05:56:13.212Z,0.90
2023-05-16T05:58:42.173Z,1.40
2023-05-16T06:01:09.566Z,1.27
2023-05-16T06:03:36.942Z,1.57
2023-05-16T06:06:05.075Z,6.13
2023-05-16T06:08:32.803Z,10.57
2023-05-16T06:11:00.728Z,1.93
2023-05-16T06:13:28.167Z,2.43
2023-05-16T06:15:55.887Z,1.50
2023-05-16T06:18:23.406Z,1.47
2023-05-16T06:20:50.842Z,1.73
2023-05-16T06:23:19.890Z,1.83
2023-05-16T06:25:48.656Z,1.93
2023-05-16T06:28:16.147Z,1.80
2023-05-16T06:30:43.534Z,1.77
2023-05-16T06:33:10.938Z,2.00
2023-05-16T06:35:38.447Z,2.00
2023-05-16T06:38:06.365Z,2.00
2023-05-16T06:40:33.765Z,2.13
2023-05-16T06:43:01.202Z,2.10
2023-05-16T06:45:28.761Z,2.27
2023-05-16T06:47:57.677Z,2.73
2023-05-16T06:50:25.296Z,2.73
2023-05-16T06:52:52.802Z,2.10
2023-05-16T06:55:20.560Z,1.90
2023-05-16T06:57:48.204Z,2.73
2023-05-16T07:00:16.151Z,2.43
2023-05-16T07:02:43.688Z,2.73
2023-05-16T07:05:11.163Z,2.37
2023-05-16T07:07:38.776Z,2.67
2023-05-16T07:10:06.445Z,3.23
2023-05-16T07:12:34.031Z,2.70
2023-05-16T07:15:01.486Z,2.53
2023-05-16T07:17:29.298Z,2.53
2023-05-16T07:19:56.844Z,3.23
2023-05-16T07:22:24.375Z,2.77
2023-05-16T07:24:54.452Z,2.73
2023-05-16T07:27:23.586Z,2.83
2023-05-16T07:29:51.334Z,3.23
2023-05-16T07:32:19.333Z,3.50
2023-05-16T07:34:47.200Z,3.73
2023-05-16T07:37:16.332Z,3.20
2023-05-16T07:39:43.968Z,3.53
2023-05-16T07:42:11.404Z,3.40
2023-05-16T07:44:38.920Z,3.53
2023-05-16T07:47:06.712Z,3.23
2023-05-16T07:49:34.126Z,3.17
2023-05-16T07:52:01.643Z,3.30
2023-05-16T07:54:29.123Z,3.57
2023-05-16T07:56:56.719Z,3.63
2023-05-16T07:59:24.253Z,3.70
2023-05-16T08:01:52.121Z,3.90
2023-05-16T08:04:20.356Z,3.43
2023-05-16T08:06:48.046Z,3.77
2023-05-16T08:09:15.528Z,3.27
2023-05-16T08:11:47.369Z,3.20
2023-05-16T08:14:17.255Z,2.90
2023-05-16T08:16:44.971Z,2.90
2023-05-16T08:19:13.118Z,2.77
2023-05-16T08:21:41.245Z,2.23
2023-05-16T08:24:11.277Z,2.97
2023-05-16T08:26:38.880Z,2.43
2023-05-16T08:29:06.520Z,2.50
2023-05-16T08:31:34.057Z,2.50
2023-05-16T08:34:06.581Z,2.30
2023-05-16T08:36:36.399Z,2.27
2023-05-16T08:39:03.806Z,2.17
2023-05-16T08:41:31.718Z,2.20
2023-05-16T08:43:59.319Z,1.97
2023-05-16T08:46:27.266Z,2.27
2023-05-16T08:48:55.420Z,2.27
2023-05-16T08:51:24.964Z,2.53
2023-05-16T08:54:03.938Z,2.00
2023-05-16T08:56:32.011Z,1.77
2023-05-16T08:58:59.806Z,1.77
2023-05-16T09:01:27.436Z,1.80
2023-05-16T09:03:56.461Z,2.03
2023-05-16T09:06:24.965Z,1.80
2023-05-16T09:08:52.846Z,1.97
2023-05-16T09:11:21.977Z,2.20
2023-05-16T09:13:49.931Z,2.47
2023-05-16T09:16:21.250Z,2.43
2023-05-16T09:19:00.146Z,2.40
2023-05-16T09:21:29.289Z,2.10
2023-05-16T09:23:56.887Z,2.00
2023-05-16T09:26:24.530Z,2.30
2023-05-16T09:28:55.371Z,2.50
2023-05-16T09:31:36.873Z,1.97
2023-05-16T09:34:05.664Z,2.20
2023-05-16T09:36:33.485Z,2.37
2023-05-16T09:39:02.124Z,2.33
2023-05-16T09:41:29.889Z,1.70
2023-05-16T09:43:57.528Z,2.00
2023-05-16T09:46:27.924Z,2.07
2023-05-16T09:48:56.332Z,2.17
2023-05-16T09:51:24.129Z,1.83
2023-05-16T09:53:51.775Z,2.13
2023-05-16T09:56:19.237Z,2.27
2023-05-16T09:58:47.967Z,2.10
2023-05-16T10:01:15.657Z,2.00
2023-05-16T10:03:44.854Z,2.30
2023-05-16T10:06:13.125Z,1.70
2023-05-16T10:08:42.765Z,1.70
2023-05-16T10:11:11.087Z,1.70
2023-05-16T10:13:40.008Z,1.70
2023-05-16T10:16:13.868Z,1.53
2023-05-16T10:18:42.366Z,1.50
2023-05-16T10:21:12.146Z,1.30
2023-05-16T10:23:42.811Z,1.43
2023-05-16T10:26:10.927Z,1.50
2023-05-16T10:28:38.764Z,1.53
2023-05-16T10:31:06.830Z,1.17
2023-05-16T10:33:34.473Z,1.40
2023-05-16T10:36:02.456Z,1.30
2023-05-16T10:38:30.725Z,1.20
2023-05-16T10:40:58.764Z,1.60
2023-05-16T10:43:27.346Z,1.40
2023-05-16T10:46:00.401Z,1.47
2023-05-16T10:48:53.518Z,1.40
2023-05-16T10:51:25.253Z,1.37
2023-05-16T10:53:53.291Z,1.40
2023-05-16T10:56:24.631Z,1.27
2023-05-16T10:58:58.682Z,1.20
2023-05-16T11:01:26.238Z,1.40
2023-05-16T11:04:00.152Z,1.13
2023-05-16T11:06:29.276Z,1.67
2023-05-16T11:09:11.856Z,1.40
2023-05-16T11:11:49.673Z,1.10
2023-05-16T11:14:32.632Z,1.50
2023-05-16T11:17:14.148Z,1.50
2023-05-16T11:19:45.516Z,1.63
2023-05-16T11:22:18.040Z,1.40
2023-05-16T11:24:52.368Z,1.40
2023-05-16T11:27:23.886Z,1.47
2023-05-16T11:29:52.948Z,1.30
2023-05-16T11:32:22.325Z,1.57
2023-05-16T11:34:50.564Z,1.93
2023-05-16T11:37:18.321Z,1.77
2023-05-16T11:39:45.893Z,1.83
2023-05-16T11:42:13.601Z,1.90
2023-05-16T11:44:41.594Z,1.60
2023-05-16T11:47:09.534Z,1.53
2023-05-16T11:49:37.492Z,1.40
2023-05-16T11:52:05.462Z,1.67
2023-05-16T11:54:34.745Z,1.57
2023-05-16T11:57:03.333Z,1.20
2023-05-16T11:59:31.363Z,1.37
2023-05-16T12:01:58.801Z,1.50
2023-05-16T12:04:26.909Z,1.13
2023-05-16T12:07:01.644Z,1.23
2023-05-16T12:09:29.186Z,1.37
2023-05-16T12:11:56.966Z,1.13
2023-05-16T12:14:26.371Z,1.10
2023-05-16T12:16:54.248Z,1.30
2023-05-16T12:19:22.235Z,1.10
2023-05-16T12:21:53.126Z,1.13
2023-05-16T12:24:21.490Z,1.10
2023-05-16T12:26:49.012Z,1.10
2023-05-16T12:29:16.612Z,1.50
2023-05-16T12:31:44.232Z,1.10
2023-05-16T12:34:18.619Z,1.00
2023-05-16T12:36:46.210Z,1.00
2023-05-16T12:39:14.453Z,1.10
2023-05-16T12:41:43.444Z,1.10
2023-05-16T12:44:17.069Z,1.13
2023-05-16T12:46:46.390Z,0.90
2023-05-16T12:49:14.165Z,1.10
2023-05-16T12:51:42.066Z,0.73
2023-05-16T12:54:11.892Z,0.90
2023-05-16T12:56:40.256Z,1.00
2023-05-16T12:59:08.124Z,0.97
2023-05-16T13:01:36.355Z,1.07
2023-05-16T13:04:04.999Z,1.00
2023-05-16T13:06:48.848Z,0.83
2023-05-16T13:09:20.372Z,1.10
2023-05-16T13:11:48.417Z,1.07
2023-05-16T13:14:16.250Z,1.00
2023-05-16T13:16:43.950Z,1.20
2023-05-16T13:19:11.952Z,1.00
2023-05-16T13:21:39.566Z,0.87
2023-05-16T13:24:07.367Z,0.80
2023-05-16T13:26:35.192Z,1.33
2023-05-16T13:29:02.766Z,0.90
2023-05-16T13:31:30.225Z,0.87
2023-05-16T13:33:59.145Z,0.90
2023-05-16T13:36:26.951Z,0.90
2023-05-16T13:38:54.685Z,1.00
2023-05-16T13:41:22.499Z,1.07
2023-05-16T13:43:49.968Z,0.93
2023-05-16T13:46:17.479Z,0.90
2023-05-16T13:48:44.844Z,0.90
2023-05-16T13:51:13.710Z,1.13
2023-05-16T13:53:41.161Z,0.87
2023-05-16T13:56:08.611Z,2.03
2023-05-16T13:58:40.624Z,1.50
2023-05-16T14:01:14.898Z,1.07
2023-05-16T14:03:42.570Z,1.07
2023-05-16T14:06:10.405Z,1.00
2023-05-16T14:08:37.847Z,0.70
2023-05-16T14:11:05.482Z,1.13
2023-05-16T14:13:32.873Z,1.60
2023-05-16T14:16:00.557Z,1.07
2023-05-16T14:18:31.054Z,0.63
2023-05-16T14:20:58.971Z,0.93
2023-05-16T14:23:26.525Z,0.70
2023-05-16T14:25:53.962Z,0.80
2023-05-16T14:28:21.360Z,1.20
2023-05-16T14:30:49.164Z,0.60
2023-05-16T14:33:16.699Z,0.80
2023-05-16T14:35:44.245Z,0.93
2023-05-16T14:38:11.809Z,0.60
2023-05-16T14:40:39.285Z,0.50
2023-05-16T14:43:06.886Z,0.50
2023-05-16T14:45:34.526Z,0.60
2023-05-16T14:48:02.443Z,0.50
2023-05-16T14:50:30.086Z,0.40
2023-05-16T14:52:57.649Z,0.40
2023-05-16T14:55:25.309Z,0.40
2023-05-16T14:57:59.630Z,2.17
2023-05-16T15:00:27.660Z,0.97
2023-05-16T15:02:55.610Z,0.40
2023-05-16T15:05:24.173Z,0.30
2023-05-16T15:07:52.007Z,0.50
2023-05-16T15:10:19.805Z,1.63
2023-05-16T15:12:47.459Z,0.30
2023-05-16T15:15:16.814Z,0.20
2023-05-16T15:17:44.639Z,0.50
2023-05-16T15:20:12.762Z,1.00
2023-05-16T15:22:41.658Z,0.40
2023-05-16T15:25:09.964Z,0.30
2023-05-16T15:27:37.646Z,0.20
2023-05-16T15:30:05.383Z,0.50
2023-05-16T15:32:32.911Z,0.60
2023-05-16T15:35:00.444Z,0.60
2023-05-16T15:37:27.885Z,0.70
2023-05-16T15:39:55.289Z,0.90
2023-05-16T15:42:22.764Z,0.70
2023-05-16T15:44:50.164Z,0.80
2023-05-16T15:47:17.607Z,0.50
2023-05-16T15:49:45.259Z,0.67
2023-05-16T15:52:12.895Z,0.70
2023-05-16T15:54:41.085Z,0.63
2023-05-16T15:57:08.693Z,0.90
2023-05-16T15:59:36.165Z,0.70
2023-05-16T16:02:05.655Z,0.73
2023-05-16T16:04:33.890Z,0.80
2023-05-16T16:07:01.412Z,0.60
2023-05-16T16:09:28.928Z,0.70
2023-05-16T16:11:56.945Z,0.73
2023-05-16T16:14:25.343Z,0.67
2023-05-16T16:16:52.853Z,0.50
2023-05-16T16:19:20.452Z,0.60
2023-05-16T16:21:48.083Z,0.50
2023-05-16T16:24:16.046Z,0.63
2023-05-16T16:26:43.850Z,0.60
2023-05-16T16:29:11.468Z,0.80
2023-05-16T16:31:39.129Z,0.60
2023-05-16T16:34:06.647Z,0.70
2023-05-16T16:36:34.205Z,0.50
2023-05-16T16:39:01.724Z,0.40
2023-05-16T16:41:29.252Z,0.53
2023-05-16T16:43:56.885Z,0.40
2023-05-16T16:46:24.651Z,0.53
2023-05-16T16:48:52.854Z,0.40
2023-05-16T16:51:20.367Z,0.63
2023-05-16T16:53:48.165Z,0.50
2023-05-16T16:56:18.773Z,0.50
2023-05-16T16:58:46.528Z,0.40
2023-05-16T17:01:14.102Z,0.60
2023-05-16T17:03:41.650Z,0.27
2023-05-16T17:06:09.252Z,0.50
2023-05-16T17:08:36.771Z,0.30
2023-05-16T17:11:05.505Z,0.20
2023-05-16T17:13:34.216Z,0.30
2023-05-16T17:16:04.856Z,0.40
2023-05-16T17:18:37.027Z,0.30
2023-05-16T17:21:04.602Z,0.40
2023-05-16T17:23:32.930Z,0.40
2023-05-16T17:26:00.620Z,0.57
2023-05-16T17:28:28.125Z,0.40
2023-05-16T17:30:56.086Z,0.30
2023-05-16T17:33:23.644Z,0.10
2023-05-16T17:35:51.221Z,0.30
2023-05-16T17:38:18.720Z,0.20
2023-05-16T17:40:46.284Z,0.53
2023-05-16T17:43:13.767Z,0.90
2023-05-16T17:45:41.262Z,0.30
2023-05-16T17:48:08.774Z,0.30
2023-05-16T17:50:36.604Z,0.30
2023-05-16T17:53:04.850Z,0.50
2023-05-16T17:55:34.007Z,0.20
2023-05-16T17:58:02.164Z,0.37
2023-05-16T18:00:29.812Z,0.20
2023-05-16T18:02:57.309Z,0.23
2023-05-16T18:05:25.229Z,0.40
2023-05-16T18:07:56.326Z,0.27
2023-05-16T18:10:25.571Z,0.20
2023-05-16T18:12:53.366Z,1.10
2023-05-16T18:15:20.832Z,0.30
2023-05-16T18:17:48.406Z,0.40
2023-05-16T18:20:16.170Z,0.20
2023-05-16T18:22:43.768Z,0.20
2023-05-16T18:25:11.583Z,0.97
2023-05-16T18:27:39.085Z,0.93
2023-05-16T18:30:06.996Z,0.80
2023-05-16T18:32:36.700Z,0.20
2023-05-16T18:35:04.221Z,0.10
2023-05-16T18:37:31.983Z,0.17
2023-05-16T18:39:59.327Z,0.20
2023-05-16T18:42:27.457Z,0.30
2023-05-16T18:44:55.090Z,1.90
2023-05-16T18:47:22.640Z,1.50
2023-05-16T18:49:50.523Z,0.80
2023-05-16T18:52:18.041Z,2.47
2023-05-16T18:54:45.401Z,1.80
2023-05-16T18:57:13.401Z,1.10
2023-05-16T18:59:40.925Z,1.10
2023-05-16T19:02:08.528Z,0.40
2023-05-16T19:04:36.451Z,0.80
2023-05-16T19:07:05.241Z,1.53
2023-05-16T19:09:33.771Z,0.60
2023-05-16T19:12:01.293Z,0.90
2023-05-16T19:14:28.760Z,0.90
2023-05-16T19:16:56.249Z,0.30
2023-05-16T19:19:23.770Z,0.30
2023-05-16T19:21:51.644Z,0.10
2023-05-16T19:24:19.187Z,0.10
2023-05-16T19:26:46.842Z,0.20
2023-05-16T19:29:14.321Z,0.30
2023-05-16T19:31:41.965Z,0.30
2023-05-16T19:34:09.505Z,0.20
2023-05-16T19:36:37.660Z,0.40
2023-05-16T19:39:05.770Z,0.40
2023-05-16T19:41:33.126Z,0.20
2023-05-16T19:44:00.766Z,0.40
2023-05-16T19:46:28.282Z,0.50
2023-05-16T19:48:55.793Z,0.40
2023-05-16T19:51:37.261Z,0.40
2023-05-16T19:54:08.605Z,0.40
2023-05-16T19:56:36.093Z,0.30
2023-05-16T19:59:03.447Z,0.57
2023-05-16T20:01:31.090Z,0.30
2023-05-16T20:04:00.691Z,0.30
2023-05-16T20:06:29.482Z,0.53
2023-05-16T20:08:57.028Z,0.60
2023-05-16T20:11:24.568Z,0.50
2023-05-16T20:13:52.043Z,0.70
2023-05-16T20:16:20.780Z,0.30
2023-05-16T20:18:48.343Z,0.20
2023-05-16T20:21:15.876Z,0.30
2023-05-16T20:23:43.306Z,0.20
2023-05-16T20:26:14.933Z,0.30
2023-05-16T20:28:42.538Z,0.30
2023-05-16T20:31:09.882Z,0.30
2023-05-16T20:33:37.507Z,0.10
2023-05-16T20:36:05.166Z,0.37
2023-05-16T20:38:32.564Z,0.40
2023-05-16T20:41:00.370Z,0.60
2023-05-16T20:43:27.728Z,0.30
2023-05-16T20:45:55.125Z,0.40
2023-05-16T20:48:22.667Z,0.37
2023-05-16T20:50:50.307Z,0.30
2023-05-16T20:53:17.684Z,0.53
2023-05-16T20:55:45.128Z,0.50
2023-05-16T20:58:12.529Z,0.60
2023-05-16T21:00:39.881Z,0.40
2023-05-16T21:03:07.417Z,0.33
2023-05-16T21:05:36.452Z,0.40
2023-05-16T21:08:04.280Z,0.40
2023-05-16T21:10:31.779Z,0.30
2023-05-16T21:12:59.333Z,0.40
2023-05-16T21:15:26.956Z,0.40
2023-05-16T21:17:54.636Z,0.40
2023-05-16T21:20:22.159Z,0.30
2023-05-16T21:22:49.622Z,0.40
2023-05-16T21:25:17.087Z,0.40
2023-05-16T21:27:44.613Z,0.30
2023-05-16T21:30:12.256Z,0.30
2023-05-16T21:32:41.778Z,0.33
2023-05-16T21:35:09.703Z,0.30
2023-05-16T21:37:37.113Z,0.33
2023-05-16T21:40:04.606Z,0.40
2023-05-16T21:42:32.130Z,0.77
2023-05-16T21:44:59.656Z,0.50
2023-05-16T21:47:27.063Z,0.40
2023-05-16T21:49:54.434Z,0.60
2023-05-16T21:52:21.913Z,0.27
2023-05-16T21:54:51.942Z,0.40
2023-05-16T21:57:20.073Z,0.40
2023-05-16T21:59:50.548Z,0.40
2023-05-16T22:02:22.920Z,0.50
2023-05-16T22:04:51.406Z,0.30
2023-05-16T22:07:19.737Z,0.40
2023-05-16T22:09:51.095Z,0.30
2023-05-16T22:12:18.726Z,0.33
2023-05-16T22:14:46.291Z,0.20
2023-05-16T22:17:13.757Z,0.30
2023-05-16T22:19:42.542Z,0.30
2023-05-16T22:22:11.165Z,0.40
2023-05-16T22:24:38.697Z,0.20
2023-05-16T22:27:06.343Z,0.30
2023-05-16T22:29:38.488Z,0.63
2023-05-16T22:32:09.564Z,0.30
2023-05-16T22:34:40.365Z,0.23
2023-05-16T22:37:08.524Z,0.40
2023-05-16T22:39:36.324Z,0.40
2023-05-16T22:42:03.920Z,0.30
2023-05-16T22:44:31.411Z,0.50
2023-05-16T22:46:58.767Z,0.30
2023-05-16T22:49:26.171Z,0.30
2023-05-16T22:51:53.584Z,0.40
2023-05-16T22:54:21.085Z,0.40
2023-05-16T22:56:48.586Z,0.20
2023-05-16T22:59:16.129Z,0.30
2023-05-16T23:01:43.883Z,0.40
2023-05-16T23:04:11.564Z,0.40
2023-05-16T23:06:41.897Z,0.40
2023-05-16T23:09:09.325Z,0.30
2023-05-16T23:11:37.004Z,0.23
2023-05-16T23:14:04.421Z,0.33
2023-05-16T23:16:31.803Z,0.47
2023-05-16T23:18:59.290Z,0.40
2023-05-16T23:21:26.844Z,0.60
2023-05-16T23:23:54.165Z,0.63
2023-05-16T23:26:21.482Z,0.50
2023-05-16T23:28:48.809Z,0.40
2023-05-16T23:31:16.252Z,0.27
2023-05-16T23:33:43.786Z,0.70
2023-05-16T23:36:11.329Z,0.40
2023-05-16T23:38:41.009Z,0.40
2023-05-16T23:41:08.371Z,0.60
2023-05-16T23:43:35.881Z,0.43
2023-05-16T23:46:03.329Z,0.60
2023-05-16T23:48:30.869Z,0.40
2023-05-16T23:50:58.841Z,0.47
2023-05-16T23:53:29.182Z,0.60
2023-05-16T23:55:56.613Z,0.40
2023-05-16T23:58:23.964Z,0.70
